Time;durP1;ratioP1;P1;durP2;ratioP2;P2;SDS_P1;SDS_P2;PMS_P1;PMS_P2;Temp;Humidity;BMP_temperature;BMP_pressure;BME280_temperature;BME280_humidity;BME280_pressure;Samples;Min_cycle;Max_cycle;Signal;HPM_P1;HPM_P2
2022/04/19 00:12:22;;;;;;;;;;;;;;;;;;;;;
2022/04/19 04:44:13;;;;;;;10.60;9.47;;;;;;;9.47;48.64;98623.63;4092649;28;20264;-29
2022/04/19 04:50:55;;;;;;;13.00;11.60;;;;;;;7.98;52.94;98666.97;4104917;28;20235;-31
2022/04/19 04:52:57;;;;;;;12.53;10.70;;;;;;;8.45;51.96;98599.97;4110572;28;20231;-31
2022/04/19 04:54:58;;;;;;;11.80;10.30;;;;;;;9.03;50.03;98600.44;4106989;28;20234;-31
2022/04/19 04:57:02;;;;;;;19.17;13.77;;;;;;;9.37;49.14;98628.34;4108930;28;20846;-31
2022/04/19 04:59:04;;;;;;;32.37;19.40;;;;;;;9.71;48.38;98618.31;4111942;28;20738;-29
2022/04/19 05:01:05;;;;;;;41.07;22.13;;;;;;;9.90;47.91;98616.94;4107620;28;20281;-33
2022/04/19 05:03:07;;;;;;;53.63;28.63;;;;;;;9.74;48.23;98625.88;4107370;28;20254;-34
2022/04/19 05:05:09;;;;;;;72.17;35.13;;;;;;;8.74;50.39;98664.72;4104529;28;20257;-33
2022/04/19 05:07:15;;;;;;;23.73;14.53;;;;;;;8.24;51.44;98690.56;4108128;28;20261;-30
2022/04/19 05:09:17;;;;;;;19.37;11.10;;;;;;;7.41;54.05;98681.91;4110907;28;20242;-30
2022/04/19 05:11:18;;;;;;;28.00;15.97;;;;;;;8.18;52.30;98620.56;4109019;28;20632;-34
2022/04/19 05:13:20;;;;;;;65.13;32.30;;;;;;;9.27;49.54;98636.56;4109642;28;20841;-29
2022/04/19 05:15:22;;;;;;;103.23;48.30;;;;;;;9.73;48.72;98624.25;4109366;28;20262;-30
2022/04/19 05:17:23;;;;;;;53.67;32.07;;;;;;;9.66;48.84;98624.16;4106616;28;20230;-29
2022/04/19 05:19:25;;;;;;;13.63;9.80;;;;;;;9.57;48.68;98657.88;4110603;28;20269;-31
2022/04/19 05:21:27;;;;;;;9.67;6.47;;;;;;;9.07;49.81;98657.41;4107487;28;20593;-30
2022/04/19 05:23:28;;;;;;;7.53;5.17;;;;;;;9.90;48.53;98617.75;4109806;28;20242;-32
2022/04/19 05:25:30;;;;;;;5.33;4.30;;;;;;;8.86;50.51;98673.97;4107567;28;20233;-33
2022/04/19 05:27:32;;;;;;;6.27;4.27;;;;;;;9.39;49.20;98660.84;4110204;28;20293;-32
2022/04/19 05:29:33;;;;;;;4.77;3.90;;;;;;;9.83;48.95;98614.19;4110316;28;20234;-29
2022/04/19 05:31:35;;;;;;;6.70;4.10;;;;;;;8.36;52.52;98683.94;4108742;28;20230;-30
2022/04/19 05:33:37;;;;;;;5.67;4.10;;;;;;;9.21;50.13;98686.84;4109323;28;20736;-31
2022/04/19 05:35:39;;;;;;;8.27;4.03;;;;;;;9.07;51.62;98672.50;4109092;28;20230;-33
2022/04/19 05:37:40;;;;;;;7.10;5.53;;;;;;;8.06;54.27;98685.47;4111319;28;20234;-32
2022/04/19 05:39:42;;;;;;;9.17;5.20;;;;;;;8.01;55.08;98663.97;4108058;28;20231;-29
2022/04/19 05:41:44;;;;;;;8.10;5.80;;;;;;;8.37;54.50;98635.28;4104639;28;20250;-30
2022/04/19 05:43:47;;;;;;;8.77;6.40;;;;;;;7.95;55.24;98659.34;4107913;28;20254;-28
2022/04/19 05:45:48;;;;;;;8.17;6.00;;;;;;;7.94;55.82;98655.88;4109277;28;20258;-31
2022/04/19 05:47:50;;;;;;;8.50;6.17;;;;;;;8.01;56.20;98653.41;4110091;28;20640;-29
2022/04/19 05:49:52;;;;;;;5.23;4.47;;;;;;;9.31;51.56;98618.44;4106969;28;21238;-30
2022/04/19 05:51:54;;;;;;;6.70;3.63;;;;;;;10.33;48.94;98603.81;4107445;28;20247;-29
2022/04/19 05:53:56;;;;;;;4.57;3.83;;;;;;;10.13;49.23;98630.16;4108811;28;20250;-29
2022/04/19 05:55:57;;;;;;;4.33;3.67;;;;;;;8.53;53.45;98666.16;4105964;28;20239;-35
2022/04/19 05:57:59;;;;;;;5.27;3.70;;;;;;;10.09;49.21;98644.78;4109027;28;20227;-33
2022/04/19 06:00:01;;;;;;;5.33;3.60;;;;;;;10.06;48.67;98648.66;4111138;28;20234;-28
2022/04/19 06:06:44;;;;;;;6.33;4.23;;;;;;;10.68;48.23;98654.53;4108357;28;20241;-30
2022/04/19 06:08:46;;;;;;;4.47;3.80;;;;;;;9.82;49.95;98708.97;4109083;28;20242;-33
2022/04/19 06:10:49;;;;;;;5.43;3.80;;;;;;;9.04;52.19;98737.31;4110150;28;20251;-34
2022/04/19 06:12:51;;;;;;;4.93;4.30;;;;;;;10.06;49.21;98685.81;4105807;28;20967;-29
2022/04/19 06:14:53;;;;;;;5.53;4.23;;;;;;;9.58;51.08;98674.63;4101715;28;20768;-29
2022/04/19 06:16:55;;;;;;;7.40;4.70;;;;;;;10.59;49.00;98659.97;4104830;28;20242;-29
2022/04/19 06:18:57;;;;;;;5.97;4.70;;;;;;;9.59;50.86;98719.59;4104165;28;20616;-30
2022/04/19 06:20:59;;;;;;;7.50;4.57;;;;;;;8.56;54.99;98710.03;4109568;28;20257;-32
2022/04/19 06:23:01;;;;;;;6.33;5.10;;;;;;;10.06;51.26;98652.13;4107090;28;20235;-29
2022/04/19 06:25:03;;;;;;;5.40;4.70;;;;;;;9.90;51.03;98670.06;4109927;28;21059;-31
2022/04/19 06:27:08;;;;;;;5.33;4.30;;;;;;;9.68;52.94;98705.22;4101178;28;20234;-35
2022/04/19 06:29:10;;;;;;;4.40;3.70;;;;;;;10.20;50.87;98668.25;4105150;28;20235;-31
2022/04/19 06:31:11;;;;;;;5.10;4.13;;;;;;;9.69;51.60;98719.34;4104864;28;20319;-28
2022/04/19 06:33:14;;;;;;;5.70;3.80;;;;;;;9.38;52.55;98684.88;4107541;28;20314;-33
2022/04/19 06:35:15;;;;;;;7.20;4.20;;;;;;;9.81;52.17;98714.44;4107082;28;20704;-35
2022/04/19 06:37:17;;;;;;;6.57;4.27;;;;;;;9.19;53.76;98710.06;4105854;28;20230;-30
2022/04/19 06:39:19;;;;;;;5.57;4.37;;;;;;;9.31;54.95;98709.47;4106754;28;20783;-33
2022/04/19 06:41:20;;;;;;;5.73;4.13;;;;;;;9.31;54.50;98666.19;4105649;28;20227;-31
2022/04/19 06:43:22;;;;;;;6.90;4.97;;;;;;;9.68;53.41;98702.56;4106531;28;20238;-32
2022/04/19 06:45:24;;;;;;;6.17;4.17;;;;;;;9.02;54.65;98690.78;4109141;28;20312;-29
2022/04/19 06:47:26;;;;;;;6.30;4.40;;;;;;;9.72;53.33;98670.38;4107247;28;20231;-32
2022/04/19 06:49:27;;;;;;;6.97;4.33;;;;;;;10.33;51.61;98673.75;4108056;28;20238;-30
2022/04/19 06:51:32;;;;;;;6.87;4.40;;;;;;;9.79;52.72;98698.69;4108789;28;20231;-31
2022/04/19 06:53:37;;;;;;;6.03;4.13;;;;;;;10.71;50.75;98681.56;4108595;28;20234;-32
2022/04/19 06:55:39;;;;;;;5.33;4.10;;;;;;;10.05;52.87;98687.63;4105807;28;20616;-35
2022/04/19 06:57:41;;;;;;;5.17;4.10;;;;;;;10.58;51.09;98671.63;4110005;28;20303;-30
2022/04/19 06:59:43;;;;;;;5.50;3.60;;;;;;;10.99;49.11;98660.44;4105677;28;20715;-30
2022/04/19 07:01:44;;;;;;;4.60;4.13;;;;;;;11.38;48.10;98625.63;4104970;28;20234;-30
2022/04/19 07:03:46;;;;;;;4.97;4.07;;;;;;;11.34;48.28;98646.44;4103628;28;20660;-33
2022/04/19 07:05:48;;;;;;;5.10;4.00;;;;;;;11.24;48.74;98668.09;4109053;28;20853;-31
2022/04/19 07:07:49;;;;;;;4.53;3.87;;;;;;;10.67;51.35;98708.69;4107438;28;20235;-34
2022/04/19 07:09:51;;;;;;;4.57;3.90;;;;;;;10.53;51.10;98739.59;4106473;28;20243;-29
2022/04/19 07:11:53;;;;;;;3.90;3.50;;;;;;;10.22;53.05;98706.06;4108049;28;20297;-33
2022/04/19 07:13:55;;;;;;;4.67;3.83;;;;;;;11.53;48.97;98621.84;4106502;28;20270;-30
2022/04/19 07:15:57;;;;;;;5.73;4.53;;;;;;;11.93;48.21;98594.69;4108109;28;20237;-31
2022/04/19 07:17:59;;;;;;;5.30;4.20;;;;;;;11.61;48.40;98655.50;4109054;28;20292;-34
2022/04/19 07:27:01;;;;;;;5.27;3.87;;;;;;;11.27;49.44;98694.28;4105360;28;20238;-29
2022/04/19 07:29:13;;;;;;;6.37;4.10;;;;;;;11.41;50.05;98673.13;4108136;28;20238;-29
2022/04/19 07:31:15;;;;;;;5.63;4.20;;;;;;;11.81;49.14;98625.53;4108077;28;20226;-31
2022/04/19 07:33:17;;;;;;;5.30;3.80;;;;;;;11.38;49.23;98700.97;4104769;28;20870;-30
2022/04/19 07:35:18;;;;;;;4.97;4.23;;;;;;;11.63;49.02;98665.94;4111622;28;20226;-31
2022/04/19 07:37:20;;;;;;;5.13;4.10;;;;;;;12.05;47.79;98619.78;4106710;28;20971;-30
2022/04/19 07:39:22;;;;;;;5.17;4.30;;;;;;;12.33;48.19;98597.56;4107807;28;20241;-31
2022/04/19 07:41:25;;;;;;;5.40;4.33;;;;;;;12.23;48.28;98613.09;4107420;28;20231;-31
2022/04/19 07:43:28;;;;;;;5.30;3.93;;;;;;;11.92;48.21;98657.81;4102211;28;20231;-34
2022/04/19 07:45:30;;;;;;;5.73;3.90;;;;;;;12.04;48.21;98634.09;4111841;28;20237;-32
2022/04/19 07:47:32;;;;;;;6.70;3.83;;;;;;;12.25;47.56;98617.22;4109202;28;20231;-30
2022/04/19 07:49:34;;;;;;;5.47;3.90;;;;;;;12.32;47.79;98629.75;4112425;28;20242;-28
2022/04/19 07:51:36;;;;;;;4.90;3.60;;;;;;;12.22;48.13;98636.28;4112395;28;20234;-38
2022/04/19 07:53:38;;;;;;;5.50;3.57;;;;;;;12.22;48.00;98635.47;4111084;28;20597;-28
2022/04/19 07:55:39;;;;;;;5.37;3.93;;;;;;;12.03;48.15;98669.78;4109039;28;20229;-33
2022/04/19 07:57:41;;;;;;;4.97;3.70;;;;;;;12.16;47.51;98645.03;4109146;28;20261;-30
2022/04/19 07:59:43;;;;;;;5.23;3.90;;;;;;;12.62;46.86;98603.59;4110142;28;20234;-32
2022/04/19 08:01:45;;;;;;;4.20;3.60;;;;;;;12.46;46.98;98616.28;4110699;28;20235;-35
2022/04/19 08:03:46;;;;;;;5.70;3.40;;;;;;;12.93;47.18;98576.44;4111230;28;20253;-30
2022/04/19 08:05:48;;;;;;;5.13;3.83;;;;;;;12.87;46.93;98589.75;4112340;28;20265;-30
2022/04/19 08:07:50;;;;;;;11.60;3.50;;;;;;;12.50;47.68;98637.22;4108618;28;20239;-33
2022/04/19 08:09:52;;;;;;;7.07;3.50;;;;;;;12.90;46.86;98584.84;4111509;28;20234;-38
2022/04/19 08:11:54;;;;;;;3.40;3.10;;;;;;;13.25;47.39;98578.50;4109151;28;20314;-34
2022/04/19 08:13:56;;;;;;;4.10;3.70;;;;;;;12.96;46.46;98601.88;4110155;28;20262;-31
2022/04/19 08:15:57;;;;;;;4.17;3.70;;;;;;;12.91;45.86;98617.66;4110039;28;20234;-31
2022/04/19 08:17:59;;;;;;;4.70;3.60;;;;;;;13.02;45.92;98604.56;4111096;28;20258;-31
2022/04/19 08:20:01;;;;;;;4.63;3.50;;;;;;;13.42;45.37;98573.59;4112107;28;20290;-32
2022/04/19 08:22:03;;;;;;;3.43;3.13;;;;;;;12.92;46.26;98638.00;4107831;28;20241;-29
2022/04/19 08:24:05;;;;;;;4.23;3.33;;;;;;;12.93;45.12;98621.78;4109502;28;20239;-31
2022/04/19 08:26:07;;;;;;;5.60;3.20;;;;;;;13.09;45.79;98599.22;4110729;28;20321;-34
2022/04/19 08:28:09;;;;;;;5.23;3.50;;;;;;;12.87;45.13;98648.44;4106678;28;20258;-36
2022/04/19 08:30:13;;;;;;;4.57;3.83;;;;;;;13.38;44.47;98581.16;4111606;28;20235;-30
2022/04/19 08:32:15;;;;;;;4.70;3.30;;;;;;;13.37;45.08;98584.88;4107585;28;22072;-36
2022/04/19 08:34:17;;;;;;;4.97;3.23;;;;;;;13.23;44.60;98610.75;4109944;28;20238;-32
2022/04/19 08:36:20;;;;;;;6.00;3.20;;;;;;;13.63;44.35;98573.34;4104664;28;20705;-33
2022/04/19 08:38:22;;;;;;;6.00;3.27;;;;;;;13.29;46.24;98627.81;4111697;28;20234;-33
2022/04/19 08:40:27;;;;;;;6.83;3.00;;;;;;;13.92;44.66;98557.91;4110487;28;20226;-32
2022/04/19 08:42:29;;;;;;;4.33;3.30;;;;;;;13.61;45.68;98607.47;4106436;28;20235;-34
2022/04/19 08:44:35;;;;;;;4.00;3.30;;;;;;;13.77;45.04;98574.16;4108595;28;20238;-34
2022/04/19 08:46:41;;;;;;;4.83;3.23;;;;;;;13.45;45.54;98618.56;4107062;28;20234;-30
2022/04/19 08:48:44;;;;;;;4.70;3.10;;;;;;;13.20;45.72;98646.69;4108898;28;20349;-34
2022/04/19 08:50:49;;;;;;;5.73;3.63;;;;;;;13.42;45.98;98619.00;4111167;28;20242;-31
2022/04/19 08:57:29;;;;;;;3.63;2.97;;;;;;;13.78;45.51;98586.47;4109161;28;20277;-32
2022/04/19 08:57:34;;;;;;;4.60;3.17;;;;;;;13.91;43.84;98589.16;4100058;28;20236;-33
2022/04/19 08:59:35;;;;;;;5.23;2.83;;;;;;;13.37;47.15;98652.44;4111371;28;21105;-31
2022/04/19 09:01:38;;;;;;;5.33;2.80;;;;;;;14.19;44.04;98563.16;4108131;28;20246;-32
2022/04/19 09:03:41;;;;;;;4.87;3.10;;;;;;;14.84;42.87;98518.41;4104098;28;20662;-33
2022/04/19 09:05:52;;;;;;;5.00;3.10;;;;;;;14.44;42.58;98560.59;4106444;28;20243;-30
2022/04/19 09:07:57;;;;;;;4.60;2.93;;;;;;;14.94;42.35;98520.59;4108114;28;20242;-38
2022/04/19 09:10:00;;;;;;;3.97;2.90;;;;;;;14.75;44.53;98530.41;4109159;28;20676;-29
2022/04/19 09:12:10;;;;;;;3.60;3.00;;;;;;;14.41;45.47;98598.44;4105217;28;20243;-31
2022/04/19 09:14:12;;;;;;;5.23;2.70;;;;;;;14.60;45.48;98565.44;4107722;28;20277;-29
2022/04/19 09:16:13;;;;;;;4.73;3.60;;;;;;;13.91;45.93;98636.44;4109467;28;20435;-31
2022/04/19 09:18:29;;;;;;;3.23;2.90;;;;;;;14.31;44.28;98588.22;4110043;28;20257;-33
2022/04/19 09:20:31;;;;;;;4.97;3.60;;;;;;;14.54;44.98;98554.78;4108954;28;20235;-30
2022/04/19 09:22:33;;;;;;;5.53;3.50;;;;;;;14.09;46.37;98619.72;4104066;28;20238;-30
2022/04/19 09:24:35;;;;;;;4.47;3.30;;;;;;;14.32;45.34;98587.19;4107997;28;20238;-35
2022/04/19 09:26:42;;;;;;;5.37;3.20;;;;;;;13.62;46.67;98659.03;4109866;28;20242;-33
2022/04/19 09:28:44;;;;;;;4.83;3.00;;;;;;;14.18;46.09;98597.09;4107403;28;20234;-29
2022/04/19 09:30:51;;;;;;;5.10;3.37;;;;;;;14.45;44.87;98563.06;4105518;28;20640;-32
2022/04/19 09:33:05;;;;;;;8.10;3.40;;;;;;;15.45;42.81;98484.69;4107611;28;20713;-29
2022/04/19 09:35:06;;;;;;;3.83;3.07;;;;;;;15.87;41.20;98451.91;4109290;28;20234;-32
2022/04/19 09:37:13;;;;;;;3.73;2.90;;;;;;;16.06;41.54;98446.50;4109405;28;20778;-33
2022/04/19 09:39:27;;;;;;;5.07;3.30;;;;;;;14.59;44.49;98617.28;4110157;28;20938;-30
2022/04/19 09:41:30;;;;;;;7.53;3.57;;;;;;;14.31;44.65;98623.81;4107018;28;20281;-31
2022/04/19 09:43:33;;;;;;;6.97;3.17;;;;;;;15.41;44.83;98507.63;4108063;28;20289;-29
2022/04/19 09:45:47;;;;;;;6.07;3.70;;;;;;;15.93;41.77;98464.41;4110563;28;20230;-34
2022/04/19 09:47:51;;;;;;;5.90;3.70;;;;;;;15.70;41.72;98485.72;4108915;28;20248;-32
2022/04/19 09:49:53;;;;;;;5.30;3.20;;;;;;;15.14;42.45;98562.47;4104275;28;20246;-29
2022/04/19 09:51:55;;;;;;;6.40;3.87;;;;;;;15.06;42.78;98567.03;4108652;28;20290;-30
2022/04/19 09:53:57;;;;;;;4.93;3.33;;;;;;;16.09;43.14;98473.69;4105543;28;20242;-29
2022/04/19 09:55:59;;;;;;;4.63;3.30;;;;;;;16.02;43.10;98448.03;4143366;23;20773;-32
2022/04/19 09:58:02;;;;;;;7.30;3.50;;;;;;;15.85;42.99;98472.75;4141999;28;20307;-33
2022/04/19 10:00:08;;;;;;;5.93;3.70;;;;;;;16.23;41.22;98454.75;4142904;28;20233;-35
2022/04/19 10:09:16;;;;;;;4.00;2.93;;;;;;;16.34;41.25;98460.16;4138810;28;20272;-32
2022/04/19 10:11:17;;;;;;;6.63;3.87;;;;;;;16.21;42.36;98460.34;4142296;28;20230;-33
2022/04/19 10:13:23;;;;;;;6.60;3.23;;;;;;;16.99;38.89;98414.78;4141694;28;20283;-33
2022/04/19 10:15:26;;;;;;;5.10;3.30;;;;;;;16.57;41.14;98460.47;4141757;28;20335;-32
2022/04/19 10:17:28;;;;;;;6.00;3.50;;;;;;;15.41;40.35;98596.00;4139032;28;20248;-33
2022/04/19 10:19:31;;;;;;;5.73;3.57;;;;;;;16.11;41.70;98498.41;4142170;28;20275;-33
2022/04/19 10:21:34;;;;;;;4.67;3.00;;;;;;;16.78;40.50;98443.03;4141880;28;20282;-32
2022/04/19 10:23:40;;;;;;;5.90;3.50;;;;;;;17.10;38.88;98430.88;4142033;28;20706;-33
2022/04/19 10:25:44;;;;;;;4.47;3.63;;;;;;;16.74;40.63;98442.66;4142184;28;20237;-33
2022/04/19 10:27:49;;;;;;;6.27;4.40;;;;;;;16.34;42.28;98478.13;4141613;28;20757;-33
2022/04/19 10:29:51;;;;;;;5.63;3.47;;;;;;;16.87;38.39;98455.88;4141625;28;20237;-33
2022/04/19 10:32:04;;;;;;;5.03;3.50;;;;;;;16.73;39.74;98446.41;4142127;28;20312;-33
2022/04/19 10:34:23;;;;;;;5.40;3.87;;;;;;;16.29;40.49;98515.53;4140751;28;20229;-32
2022/04/19 10:36:38;;;;;;;5.53;3.50;;;;;;;16.22;40.50;98501.41;4140718;28;20887;-33
2022/04/19 10:38:41;;;;;;;5.97;3.90;;;;;;;16.90;39.66;98457.25;4140857;28;20279;-32
2022/04/19 10:40:51;;;;;;;4.57;3.37;;;;;;;16.15;40.86;98537.16;4140410;28;20707;-33
2022/04/19 10:43:12;;;;;;;5.80;3.80;;;;;;;16.00;39.01;98504.56;4141570;28;20262;-33
2022/04/19 10:45:14;;;;;;;5.53;3.87;;;;;;;16.52;40.57;98459.31;4140582;28;20276;-32
2022/04/19 10:47:20;;;;;;;5.43;3.80;;;;;;;16.41;41.25;98499.47;4142085;28;20717;-32
2022/04/19 10:49:25;;;;;;;5.57;3.80;;;;;;;16.94;40.58;98439.66;4141800;28;20233;-32
2022/04/19 10:51:27;;;;;;;7.60;3.57;;;;;;;17.10;38.78;98436.25;4138911;28;20667;-33
2022/04/19 10:53:34;;;;;;;7.33;4.13;;;;;;;17.51;37.77;98403.31;4140203;28;20287;-33
2022/04/19 10:55:58;;;;;;;4.80;3.50;;;;;;;17.22;39.86;98447.00;4141299;28;20283;-32
2022/04/19 10:58:20;;;;;;;6.80;3.67;;;;;;;16.75;38.07;98506.03;4138711;28;20225;-33
2022/04/19 11:03:35;;;;;;;6.70;4.00;;;;;;;16.73;38.89;98481.28;4188989;27;21294;-66
2022/04/19 11:05:41;;;;;;;5.63;4.40;;;;;;;16.65;38.71;98493.16;4149232;28;20240;-66
2022/04/19 11:07:43;;;;;;;6.93;3.97;;;;;;;16.00;37.41;98537.53;4153619;28;20241;-66
2022/04/19 11:10:00;;;;;;;4.90;3.87;;;;;;;16.39;38.66;98510.44;4154758;28;20224;-66
2022/04/19 11:12:10;;;;;;;5.73;4.13;;;;;;;16.22;37.72;98536.25;4153961;28;20802;-66
2022/04/19 11:14:40;;;;;;;5.37;3.60;;;;;;;17.75;38.50;98404.03;4146653;28;20248;-66
2022/04/19 11:16:43;;;;;;;5.87;3.40;;;;;;;17.97;36.05;98369.22;4149319;28;20311;-66
2022/04/19 11:18:48;;;;;;;4.97;3.90;;;;;;;17.93;37.30;98403.84;4155086;28;20589;-66
2022/04/19 11:21:12;;;;;;;5.37;3.53;;;;;;;17.38;37.64;98429.38;4153246;28;20258;-66
2022/04/19 11:23:22;;;;;;;4.87;3.27;;;;;;;16.62;38.41;98522.31;4151833;28;20240;-66
2022/04/19 11:25:45;;;;;;;5.03;3.20;;;;;;;16.87;37.07;98498.84;4155413;28;20282;-66
2022/04/19 11:27:53;;;;;;;4.47;3.27;;;;;;;16.50;36.61;98533.84;4188805;28;20322;-66
2022/04/19 11:29:55;;;;;;;7.00;3.60;;;;;;;17.35;37.61;98434.41;4188684;28;20396;-66
2022/04/19 11:31:56;;;;;;;7.07;3.47;;;;;;;17.60;36.89;98434.16;4184696;28;20242;-66
2022/04/19 11:33:59;;;;;;;5.70;3.27;;;;;;;17.35;36.66;98454.03;4180262;28;21625;-67
2022/04/19 11:36:08;;;;;;;4.87;3.77;;;;;;;17.28;37.63;98456.84;4189259;28;20227;-66
2022/04/19 11:38:10;;;;;;;4.10;3.50;;;;;;;17.39;37.05;98449.81;4189048;28;20227;-66
2022/04/19 11:47:50;;;;;;;4.70;3.00;;;;;;;17.84;36.02;98414.19;4189231;28;20224;-66
2022/04/19 11:49:51;;;;;;;3.30;2.63;;;;;;;18.43;35.41;98372.75;4187687;28;20234;-66
2022/04/19 11:51:58;;;;;;;3.97;3.10;;;;;;;18.36;33.86;98348.69;4187809;28;20223;-66
2022/04/19 11:54:00;;;;;;;4.77;2.83;;;;;;;18.74;32.71;98359.78;4185395;28;20235;-66
2022/04/19 11:56:03;;;;;;;4.00;2.80;;;;;;;18.92;34.63;98334.50;4186082;28;20223;-66
2022/04/19 11:58:06;;;;;;;3.03;2.70;;;;;;;18.69;35.26;98383.94;4189330;28;20293;-66
2022/04/19 12:00:08;;;;;;;3.77;2.93;;;;;;;17.50;35.84;98440.13;4190310;28;20227;-66
2022/04/19 12:02:15;;;;;;;6.20;2.90;;;;;;;17.59;34.90;98476.31;4190449;28;20695;-66
2022/04/19 12:04:17;;;;;;;6.57;3.40;;;;;;;18.01;36.88;98414.25;4184228;28;20227;-66
2022/04/19 12:06:20;;;;;;;5.03;3.03;;;;;;;17.98;36.20;98441.59;4191799;28;20224;-66
2022/04/19 12:08:54;;;;;;;3.10;2.63;;;;;;;17.46;36.09;98477.41;4186170;28;20273;-66
2022/04/19 12:10:57;;;;;;;4.20;3.20;;;;;;;18.72;34.15;98329.59;4182971;28;20237;-66
2022/04/19 12:12:59;;;;;;;4.67;2.80;;;;;;;18.56;36.47;98366.22;4185263;28;20254;-66
2022/04/19 12:15:00;;;;;;;4.80;3.07;;;;;;;18.39;36.04;98379.69;4178173;28;20235;-66
2022/04/19 12:17:06;;;;;;;5.67;3.30;;;;;;;18.45;35.83;98372.53;4177604;28;20228;-66
2022/04/19 12:19:09;;;;;;;6.17;3.53;;;;;;;18.35;34.87;98392.81;4174717;28;20258;-66
2022/04/19 12:21:11;;;;;;;7.03;3.40;;;;;;;18.22;35.22;98398.50;4176990;28;20703;-66
2022/04/19 12:23:20;;;;;;;6.07;3.50;;;;;;;17.54;35.97;98457.38;4173294;28;20235;-66
2022/04/19 12:25:25;;;;;;;6.00;3.20;;;;;;;17.91;36.31;98459.75;4179219;28;20584;-66
2022/04/19 12:27:28;;;;;;;3.90;3.50;;;;;;;17.43;37.72;98501.22;4174724;28;20313;-66
2022/04/19 12:29:37;;;;;;;5.60;3.50;;;;;;;17.44;36.58;98481.34;4178013;28;20702;-65
2022/04/19 12:31:50;;;;;;;8.03;3.00;;;;;;;17.02;36.72;98519.03;4174749;28;20664;-66
2022/04/19 12:33:54;;;;;;;6.03;3.70;;;;;;;18.05;36.17;98403.81;4174082;28;20239;-66
2022/04/19 12:35:56;;;;;;;6.13;3.70;;;;;;;16.44;36.02;98542.78;4175567;28;20709;-66
2022/04/19 12:38:16;;;;;;;4.53;3.50;;;;;;;17.05;36.21;98507.84;4173985;28;20289;-66
2022/04/19 12:40:26;;;;;;;3.97;3.23;;;;;;;18.77;35.18;98352.00;4176768;28;20606;-66
2022/04/19 12:42:28;;;;;;;5.20;3.10;;;;;;;18.04;35.80;98423.72;4173392;28;20277;-66
2022/04/19 12:44:30;;;;;;;4.70;3.50;;;;;;;17.47;36.61;98454.03;4174528;28;20228;-66
2022/04/19 12:46:32;;;;;;;4.77;3.53;;;;;;;17.22;36.50;98505.28;4175570;28;20315;-66
2022/04/19 12:48:33;;;;;;;5.57;3.50;;;;;;;17.94;36.69;98418.94;4177323;28;20235;-66
2022/04/19 12:50:35;;;;;;;4.90;3.77;;;;;;;17.90;37.31;98401.66;4177295;28;20267;-66
2022/04/19 12:52:37;;;;;;;6.10;3.40;;;;;;;17.29;37.11;98455.81;4177825;28;20285;-67
2022/04/19 12:54:50;;;;;;;4.60;3.70;;;;;;;18.15;37.09;98369.06;4174512;28;20756;-66
2022/04/19 12:57:24;;;;;;;7.07;3.83;;;;;;;17.38;38.26;98467.00;4180430;28;20250;-66
2022/04/19 12:59:30;;;;;;;7.50;3.57;;;;;;;17.42;37.34;98445.84;4170206;28;20282;-66
2022/04/19 13:01:32;;;;;;;5.20;3.80;;;;;;;18.26;35.57;98367.38;4177547;28;20699;-66
2022/04/19 13:03:37;;;;;;;4.47;3.70;;;;;;;17.87;37.17;98412.06;4174325;28;20224;-66
2022/04/19 13:12:41;;;;;;;5.30;3.53;;;;;;;17.59;37.11;98437.88;4175025;28;20620;-66
2022/04/19 13:14:47;;;;;;;5.93;3.80;;;;;;;17.96;36.35;98397.19;4172051;28;20289;-66
2022/04/19 13:16:57;;;;;;;5.73;3.43;;;;;;;18.66;36.20;98330.56;4183759;28;20230;-66
2022/04/19 13:18:59;;;;;;;5.80;3.23;;;;;;;18.54;36.57;98323.44;4172661;28;20255;-66
2022/04/19 13:21:00;;;;;;;5.00;2.70;;;;;;;18.70;36.83;98331.72;4179605;28;20240;-66
2022/04/19 13:23:02;;;;;;;4.53;2.63;;;;;;;19.02;36.78;98304.19;4173205;28;20232;-66
2022/04/19 13:25:05;;;;;;;3.83;2.97;;;;;;;18.78;35.70;98313.25;4173806;28;20231;-66
2022/04/19 13:27:06;;;;;;;5.17;2.93;;;;;;;19.32;34.03;98304.56;4174222;28;20228;-66
2022/04/19 13:29:08;;;;;;;3.40;2.80;;;;;;;19.17;35.41;98306.22;4176947;28;20277;-66
2022/04/19 13:31:10;;;;;;;5.23;3.17;;;;;;;19.15;33.64;98319.97;4180077;28;20219;-66
2022/04/19 13:33:15;;;;;;;4.50;2.93;;;;;;;18.56;34.80;98331.22;4188261;28;20235;-66
2022/04/19 13:35:17;;;;;;;4.97;2.90;;;;;;;18.35;35.98;98400.06;4172153;28;20235;-66
2022/04/19 13:38:23;;;;;;;3.53;2.67;;;;;;;18.54;36.38;98365.66;4172564;28;20292;-66
2022/04/19 13:39:40;;;;;;;3.93;3.10;;;;;;;17.93;37.13;98397.69;4177514;28;20674;-65
2022/04/19 13:41:42;;;;;;;3.37;2.87;;;;;;;18.61;36.10;98360.09;4174722;28;20315;-66
2022/04/19 13:43:45;;;;;;;5.97;3.27;;;;;;;19.45;33.90;98286.34;4178547;28;20258;-66
2022/04/19 13:45:47;;;;;;;3.67;3.00;;;;;;;19.45;33.20;98284.50;4174304;28;20494;-66
2022/04/19 13:47:49;;;;;;;4.57;3.20;;;;;;;19.45;35.19;98291.75;4174029;28;20289;-66
2022/04/19 13:49:51;;;;;;;4.63;3.70;;;;;;;19.42;33.36;98295.78;4175970;28;20235;-66
2022/04/19 13:51:54;;;;;;;5.03;3.50;;;;;;;19.07;35.41;98337.38;4177058;28;20239;-66
2022/04/19 13:53:55;;;;;;;6.23;3.43;;;;;;;18.37;35.86;98398.78;4169079;28;20666;-66
2022/04/19 13:55:58;;;;;;;6.40;3.73;;;;;;;18.24;36.14;98422.47;4172190;28;20235;-66
2022/04/19 13:58:00;;;;;;;6.90;4.40;;;;;;;18.77;35.62;98349.31;4170134;28;20282;-66
2022/04/19 14:00:01;;;;;;;7.17;5.10;;;;;;;19.31;34.31;98304.81;4174918;28;20231;-66
2022/04/19 14:02:03;;;;;;;8.20;4.40;;;;;;;19.16;34.26;98332.38;4172401;28;20239;-69
2022/04/19 14:04:05;;;;;;;5.87;3.93;;;;;;;18.92;32.71;98350.66;4171935;28;20232;-71
2022/04/19 14:06:07;;;;;;;4.30;3.28;;;;;;;19.29;32.09;98323.09;4175529;28;20699;-69
2022/04/19 14:08:09;;;;;;;4.88;3.38;;;;;;;17.94;33.98;98421.63;4168861;28;20254;-69
2022/04/19 14:10:10;;;;;;;4.65;3.28;;;;;;;19.01;35.17;98324.09;4173837;28;20220;-69
2022/04/19 14:12:20;;;;;;;5.23;3.17;;;;;;;18.97;32.57;98344.53;4171676;28;20384;-70
2022/04/19 14:14:22;;;;;;;4.10;3.30;;;;;;;19.33;32.30;98341.22;4169873;28;20312;-65
2022/04/19 14:16:24;;;;;;;6.10;3.40;;;;;;;19.26;32.35;98315.53;4172383;28;20228;-71
2022/04/19 14:18:29;;;;;;;3.93;3.10;;;;;;;19.70;34.20;98310.09;4171969;28;20700;-72
2022/04/19 14:20:31;;;;;;;4.13;3.10;;;;;;;19.24;35.07;98313.06;4173420;28;20235;-66
2022/04/19 14:22:35;;;;;;;6.30;3.65;;;;;;;19.43;34.60;98323.53;4169572;28;20628;-67
2022/04/19 14:24:37;;;;;;;4.00;2.73;;;;;;;18.80;32.78;98349.91;4170543;28;20283;-67
2022/04/19 14:26:39;;;;;;;4.07;3.15;;;;;;;19.49;33.67;98325.22;4169132;28;20224;-67
2022/04/19 14:33:22;;;;;;;10.27;3.53;;;;;;;19.77;33.63;98305.31;4173697;28;20228;-68
2022/04/19 14:35:24;;;;;;;7.80;4.03;;;;;;;18.88;34.85;98369.19;4174912;28;20235;-66
2022/04/19 14:37:25;;;;;;;4.88;3.65;;;;;;;19.65;34.63;98321.63;4172763;28;20232;-66
2022/04/19 14:39:32;;;;;;;6.90;3.00;;;;;;;19.57;34.43;98329.38;4170563;28;20228;-66
2022/04/19 14:41:34;;;;;;;6.05;3.83;;;;;;;19.23;33.60;98337.56;4173851;28;20719;-68
2022/04/19 14:43:36;;;;;;;8.03;4.70;;;;;;;18.22;33.70;98446.91;4178735;28;20239;-67
2022/04/19 14:45:38;;;;;;;7.22;3.90;;;;;;;19.04;34.06;98351.34;4167557;28;20232;-68
2022/04/19 14:47:40;;;;;;;7.70;3.55;;;;;;;19.24;34.58;98333.81;4167046;28;20228;-68
2022/04/19 14:49:41;;;;;;;3.65;3.03;;;;;;;19.38;34.10;98336.94;4168109;28;20231;-67
2022/04/19 14:54:04;;;;;;;4.00;3.00;;;;;;;19.59;31.51;98302.97;4166616;28;20231;-65
2022/04/19 14:56:05;;;;;;;4.25;2.88;;;;;;;19.69;32.06;98309.31;4167268;28;20228;-65
2022/04/19 14:58:07;;;;;;;4.72;3.15;;;;;;;19.98;32.64;98283.94;4165748;28;20251;-68
2022/04/19 15:00:10;;;;;;;4.72;2.92;;;;;;;19.93;31.54;98302.78;4167531;28;20220;-67
2022/04/19 15:02:11;;;;;;;4.97;3.47;;;;;;;19.12;31.72;98382.44;4170005;28;20298;-67
2022/04/19 15:04:13;;;;;;;4.95;3.45;;;;;;;19.52;32.85;98333.63;4172354;28;20315;-66
2022/04/19 15:06:19;;;;;;;5.45;3.00;;;;;;;19.72;32.64;98339.50;4167677;28;20362;-67
2022/04/19 15:08:20;;;;;;;3.78;3.13;;;;;;;19.36;33.85;98355.25;4169399;28;20223;-67
2022/04/19 15:10:23;;;;;;;4.65;2.90;;;;;;;19.93;32.24;98297.38;4168138;28;20227;-64
2022/04/19 15:12:39;;;;;;;3.53;2.97;;;;;;;19.42;32.33;98352.38;4166740;28;20286;-65
2022/04/19 15:14:41;;;;;;;3.85;2.90;;;;;;;19.89;32.48;98305.16;4186682;28;20239;-65
2022/04/19 15:16:42;;;;;;;4.47;3.28;;;;;;;19.58;32.19;98339.09;4174083;28;20293;-68